Time;durP1;ratioP1;P1;durP2;ratioP2;P2;SDS_P1;SDS_P2;PMS_P1;PMS_P2;Temp;Humidity;BMP_temperature;BMP_pressure;BME280_temperature;BME280_humidity;BME280_pressure;Samples;Min_cycle;Max_cycle;Signal;HPM_P1;HPM_P2
2023/11/25 00:01:37;;;;;;;2.60;1.00;;;;;;;;;;5077627;28;20467;-79
2023/11/25 00:04:05;;;;;;;3.50;1.47;;;;;;;;;;5082766;28;20449;-79
2023/11/25 00:06:32;;;;;;;5.60;1.47;;;;;;;;;;5081803;28;20487;-79
2023/11/25 00:09:00;;;;;;;5.50;2.27;;;;;;;;;;5085387;28;20512;-79
2023/11/25 00:11:29;;;;;;;7.43;0.93;;;;;;;;;;5085466;28;20467;-79
2023/11/25 00:13:56;;;;;;;3.97;1.47;;;;;;;;;;5085081;28;20495;-77
2023/11/25 00:16:24;;;;;;;6.00;1.20;;;;;;;;;;5085442;28;20456;-78
2023/11/25 00:18:54;;;;;;;3.20;1.07;;;;;;;;;;5082239;28;20459;-78
2023/11/25 00:21:22;;;;;;;3.63;0.80;;;;;;;;;;5080251;28;20790;-78
2023/11/25 00:23:50;;;;;;;3.47;0.80;;;;;;;;;;5081451;28;20452;-78
2023/11/25 00:26:19;;;;;;;3.50;1.13;;;;;;;;;;5080299;28;21023;-79
2023/11/25 00:28:47;;;;;;;2.67;0.80;;;;;;;;;;5086631;28;20953;-77
2023/11/25 00:31:15;;;;;;;3.17;1.13;;;;;;;;;;5085715;28;20860;-77
2023/11/25 00:33:43;;;;;;;2.87;0.80;;;;;;;;;;5087304;28;20737;-78
2023/11/25 00:36:12;;;;;;;2.67;0.80;;;;;;;;;;5085885;28;20448;-78
2023/11/25 00:38:40;;;;;;;4.30;0.73;;;;;;;;;;5087480;28;20452;-78
2023/11/25 00:41:08;;;;;;;4.53;1.30;;;;;;;;;;5086997;28;20452;-77
2023/11/25 00:43:37;;;;;;;5.00;1.30;;;;;;;;;;5080778;28;20440;-78
2023/11/25 00:46:05;;;;;;;5.90;1.00;;;;;;;;;;5087673;28;20502;-78
2023/11/25 00:48:35;;;;;;;7.90;1.23;;;;;;;;;;5088379;28;20472;-78
2023/11/25 00:51:03;;;;;;;6.70;1.40;;;;;;;;;;5084135;28;20456;-79
2023/11/25 00:53:32;;;;;;;3.13;1.57;;;;;;;;;;5084900;28;20440;-78
2023/11/25 00:56:01;;;;;;;4.23;1.13;;;;;;;;;;5069004;28;20535;-78
2023/11/25 00:58:28;;;;;;;4.20;1.20;;;;;;;;;;5086036;28;20448;-79
2023/11/25 01:00:56;;;;;;;9.63;1.03;;;;;;;;;;5088331;28;20798;-79
2023/11/25 01:03:24;;;;;;;6.50;1.43;;;;;;;;;;5085972;28;20497;-78
2023/11/25 01:05:52;;;;;;;5.77;1.37;;;;;;;;;;5084361;28;20472;-79
2023/11/25 01:08:20;;;;;;;4.60;1.10;;;;;;;;;;5088100;28;20491;-78
2023/11/25 01:10:49;;;;;;;8.03;1.53;;;;;;;;;;5084697;28;20738;-78
2023/11/25 01:13:17;;;;;;;2.87;1.00;;;;;;;;;;5085155;28;20586;-78
2023/11/25 01:15:45;;;;;;;3.10;1.03;;;;;;;;;;5086815;28;20449;-78
2023/11/25 01:18:16;;;;;;;6.03;0.83;;;;;;;;;;5087586;28;20461;-78
2023/11/25 01:20:44;;;;;;;3.60;1.17;;;;;;;;;;5091683;28;20489;-78
2023/11/25 01:23:12;;;;;;;5.33;1.17;;;;;;;;;;5089224;28;20480;-78
2023/11/25 01:25:40;;;;;;;3.40;1.30;;;;;;;;;;5089833;28;20703;-78
2023/11/25 01:28:10;;;;;;;3.33;1.00;;;;;;;;;;5092161;28;20480;-77
2023/11/25 01:30:39;;;;;;;3.93;1.50;;;;;;;;;;5093505;28;20453;-78
2023/11/25 01:33:07;;;;;;;9.10;1.20;;;;;;;;;;5090279;28;20484;-80
2023/11/25 01:35:35;;;;;;;2.77;0.90;;;;;;;;;;5090063;28;20480;-79
2023/11/25 01:38:09;;;;;;;2.53;0.93;;;;;;;;;;5089882;28;20452;-78
2023/11/25 01:40:37;;;;;;;9.70;1.53;;;;;;;;;;5089980;28;20456;-78
2023/11/25 01:43:10;;;;;;;6.17;1.00;;;;;;;;;;5086513;28;20470;-77
2023/11/25 01:45:38;;;;;;;7.73;1.43;;;;;;;;;;5083728;28;20779;-79
2023/11/25 01:48:07;;;;;;;8.00;1.77;;;;;;;;;;5104146;28;20533;-78
2023/11/25 01:50:36;;;;;;;3.90;1.23;;;;;;;;;;5108338;28;20483;-78
2023/11/25 01:53:05;;;;;;;4.97;1.10;;;;;;;;;;5107439;28;20489;-78
2023/11/25 01:55:33;;;;;;;3.60;0.93;;;;;;;;;;5106688;28;20459;-77
2023/11/25 01:58:07;;;;;;;7.63;1.60;;;;;;;;;;5104636;28;20450;-77
2023/11/25 02:00:38;;;;;;;2.00;0.90;;;;;;;;;;5106977;28;20727;-79
2023/11/25 02:03:06;;;;;;;5.70;1.10;;;;;;;;;;5103931;28;20466;-76
2023/11/25 02:05:33;;;;;;;3.97;1.10;;;;;;;;;;5103849;28;20475;-79
2023/11/25 02:08:07;;;;;;;7.10;2.10;;;;;;;;;;5108453;28;20483;-78
2023/11/25 02:10:34;;;;;;;4.10;1.70;;;;;;;;;;5102018;28;20754;-78
2023/11/25 02:13:08;;;;;;;4.33;2.23;;;;;;;;;;5105112;28;20463;-78
2023/11/25 02:15:37;;;;;;;5.37;3.37;;;;;;;;;;5102110;28;20964;-78
2023/11/25 02:18:05;;;;;;;6.10;1.80;;;;;;;;;;5118882;28;20447;-78
2023/11/25 02:20:35;;;;;;;4.87;1.37;;;;;;;;;;5124945;28;20546;-78
2023/11/25 02:23:05;;;;;;;4.67;1.20;;;;;;;;;;5124195;28;20549;-79
2023/11/25 02:25:33;;;;;;;4.40;1.10;;;;;;;;;;5124440;28;20802;-78
2023/11/25 02:28:06;;;;;;;3.73;1.33;;;;;;;;;;5124799;28;20483;-78
2023/11/25 02:30:34;;;;;;;3.67;1.47;;;;;;;;;;5125013;28;20519;-78
2023/11/25 02:33:07;;;;;;;5.77;1.70;;;;;;;;;;5125391;28;20537;-78
2023/11/25 02:35:35;;;;;;;7.30;1.47;;;;;;;;;;5125361;28;20915;-78
2023/11/25 02:38:07;;;;;;;8.73;1.53;;;;;;;;;;5125468;28;20442;-79
2023/11/25 02:40:35;;;;;;;4.50;1.70;;;;;;;;;;5126981;28;20467;-78
2023/11/25 02:43:02;;;;;;;16.83;3.20;;;;;;;;;;5124348;28;20457;-78
2023/11/25 02:45:30;;;;;;;3.03;1.10;;;;;;;;;;5125455;28;20446;-79
2023/11/25 02:47:59;;;;;;;4.40;1.57;;;;;;;;;;5123238;28;20478;-77
2023/11/25 02:50:28;;;;;;;4.03;1.10;;;;;;;;;;5126517;28;20459;-78
2023/11/25 02:52:56;;;;;;;3.40;1.30;;;;;;;;;;5128230;28;20462;-78
2023/11/25 02:55:25;;;;;;;3.07;1.03;;;;;;;;;;5129556;28;20502;-78
2023/11/25 02:57:59;;;;;;;4.27;1.07;;;;;;;;;;5130662;28;20471;-78
2023/11/25 03:00:33;;;;;;;5.73;1.20;;;;;;;;;;5130586;28;20761;-79
2023/11/25 03:03:07;;;;;;;8.23;1.40;;;;;;;;;;5131885;28;20549;-79
2023/11/25 03:05:36;;;;;;;3.80;1.23;;;;;;;;;;5134130;28;20482;-79
2023/11/25 03:08:05;;;;;;;9.13;1.70;;;;;;;;;;5133671;28;20479;-78
2023/11/25 03:10:35;;;;;;;3.20;0.90;;;;;;;;;;5129378;28;20476;-78
2023/11/25 03:13:09;;;;;;;4.53;1.30;;;;;;;;;;5125765;28;20719;-78
2023/11/25 03:15:37;;;;;;;2.87;0.90;;;;;;;;;;5124638;28;20549;-78
2023/11/25 03:18:06;;;;;;;7.30;1.30;;;;;;;;;;5127158;28;20574;-79
2023/11/25 03:20:34;;;;;;;7.43;1.37;;;;;;;;;;5130553;28;20752;-78
2023/11/25 03:23:03;;;;;;;5.87;1.33;;;;;;;;;;5130146;28;20865;-79
2023/11/25 03:25:31;;;;;;;7.00;1.63;;;;;;;;;;5129893;28;20450;-78
2023/11/25 03:28:10;;;;;;;5.53;1.70;;;;;;;;;;5125520;28;20449;-78
2023/11/25 03:30:38;;;;;;;4.93;1.30;;;;;;;;;;5130153;28;20515;-78
2023/11/25 03:33:05;;;;;;;6.20;1.40;;;;;;;;;;5129524;28;20450;-78
2023/11/25 03:35:34;;;;;;;3.13;1.03;;;;;;;;;;5129226;28;20869;-78
2023/11/25 03:38:08;;;;;;;8.10;1.70;;;;;;;;;;5129183;28;20455;-78
2023/11/25 03:40:36;;;;;;;6.57;0.90;;;;;;;;;;5124835;28;20850;-78
2023/11/25 03:43:05;;;;;;;3.97;1.30;;;;;;;;;;5124811;28;20838;-78
2023/11/25 03:45:33;;;;;;;3.60;1.40;;;;;;;;;;5124776;28;21157;-79
2023/11/25 03:48:07;;;;;;;5.40;0.90;;;;;;;;;;5123569;28;20462;-78
2023/11/25 03:50:34;;;;;;;3.37;0.77;;;;;;;;;;5131632;28;20454;-79
2023/11/25 03:53:02;;;;;;;4.17;1.47;;;;;;;;;;5126174;28;20463;-78
2023/11/25 03:55:29;;;;;;;5.93;1.37;;;;;;;;;;5123851;28;20469;-78
2023/11/25 03:57:57;;;;;;;7.60;2.90;;;;;;;;;;5127977;28;20442;-78
2023/11/25 04:00:27;;;;;;;5.03;2.13;;;;;;;;;;5126261;28;20498;-79
2023/11/25 04:02:54;;;;;;;6.10;1.97;;;;;;;;;;5124183;28;20450;-79
2023/11/25 04:05:23;;;;;;;4.90;1.00;;;;;;;;;;5121166;28;20614;-78
2023/11/25 04:07:52;;;;;;;4.53;1.00;;;;;;;;;;5126301;28;20442;-79
2023/11/25 04:10:23;;;;;;;9.00;1.10;;;;;;;;;;5125660;28;20549;-79
2023/11/25 04:12:52;;;;;;;3.53;1.40;;;;;;;;;;5129325;28;20716;-78
2023/11/25 04:15:20;;;;;;;7.73;1.10;;;;;;;;;;5126095;28;20628;-79
2023/11/25 04:17:50;;;;;;;4.20;1.10;;;;;;;;;;5125423;28;20459;-78
2023/11/25 04:20:24;;;;;;;5.90;1.00;;;;;;;;;;5127563;28;20519;-78
2023/11/25 04:22:52;;;;;;;8.80;1.30;;;;;;;;;;5127354;28;20451;-78
2023/11/25 04:25:22;;;;;;;6.93;1.30;;;;;;;;;;5129723;28;20553;-78
2023/11/25 04:27:50;;;;;;;3.00;0.90;;;;;;;;;;5129609;28;20514;-78
2023/11/25 04:30:18;;;;;;;7.90;1.00;;;;;;;;;;5130077;28;20489;-78
2023/11/25 04:32:48;;;;;;;5.80;1.37;;;;;;;;;;5129157;28;20459;-78
2023/11/25 04:35:21;;;;;;;2.87;0.70;;;;;;;;;;5129330;28;20483;-78
2023/11/25 04:37:49;;;;;;;5.47;0.87;;;;;;;;;;5130917;28;20739;-78
2023/11/25 04:40:18;;;;;;;5.20;1.63;;;;;;;;;;5131320;28;20524;-78
2023/11/25 04:42:46;;;;;;;4.60;1.07;;;;;;;;;;5129998;28;20475;-78
2023/11/25 04:45:16;;;;;;;4.90;1.30;;;;;;;;;;5124567;28;20467;-77
2023/11/25 04:47:47;;;;;;;7.57;2.03;;;;;;;;;;5123968;28;20465;-77
2023/11/25 04:50:17;;;;;;;5.60;1.23;;;;;;;;;;5122928;28;20525;-78
2023/11/25 04:52:47;;;;;;;7.83;1.17;;;;;;;;;;5119747;28;20458;-79
2023/11/25 04:55:27;;;;;;;8.00;1.03;;;;;;;;;;5122284;28;20451;-78
2023/11/25 04:57:55;;;;;;;4.70;0.90;;;;;;;;;;5126092;28;20745;-78
2023/11/25 05:00:22;;;;;;;7.97;1.27;;;;;;;;;;5120270;28;20442;-79
2023/11/25 05:02:51;;;;;;;8.17;1.30;;;;;;;;;;5120453;28;20462;-79
2023/11/25 05:05:19;;;;;;;3.33;1.10;;;;;;;;;;5118356;28;20549;-77
2023/11/25 05:07:48;;;;;;;4.73;1.23;;;;;;;;;;5119040;28;20451;-77
2023/11/25 05:10:19;;;;;;;7.20;1.00;;;;;;;;;;5124381;28;20497;-79
2023/11/25 05:12:49;;;;;;;7.47;2.00;;;;;;;;;;5129282;28;20451;-78
2023/11/25 05:15:45;;;;;;;5.13;1.77;;;;;;;;;;5135637;28;20459;-79
2023/11/25 05:18:22;;;;;;;4.20;1.30;;;;;;;;;;5117342;28;20549;-78
2023/11/25 05:20:50;;;;;;;4.90;1.73;;;;;;;;;;5132380;28;20746;-78
2023/11/25 05:23:19;;;;;;;6.37;1.57;;;;;;;;;;5131527;28;20439;-78
2023/11/25 05:25:47;;;;;;;8.87;2.10;;;;;;;;;;5133014;28;20745;-78
2023/11/25 05:28:19;;;;;;;8.10;3.20;;;;;;;;;;5131720;28;20861;-78
2023/11/25 05:30:46;;;;;;;9.53;3.60;;;;;;;;;;5130066;28;20919;-78
2023/11/25 05:33:17;;;;;;;6.43;2.13;;;;;;;;;;5130726;28;20776;-78
2023/11/25 05:35:47;;;;;;;8.43;2.20;;;;;;;;;;5126457;28;20738;-77
2023/11/25 05:38:19;;;;;;;4.83;1.20;;;;;;;;;;5129396;28;20477;-77
2023/11/25 05:40:47;;;;;;;6.67;2.00;;;;;;;;;;5124730;28;20430;-78
2023/11/25 05:43:18;;;;;;;3.63;1.20;;;;;;;;;;5127047;28;20450;-76
2023/11/25 05:45:47;;;;;;;3.73;1.00;;;;;;;;;;5124989;28;20459;-77
2023/11/25 05:48:27;;;;;;;5.40;1.20;;;;;;;;;;5126342;28;20504;-77
2023/11/25 05:50:55;;;;;;;5.33;1.40;;;;;;;;;;5126939;28;20482;-78
2023/11/25 05:53:24;;;;;;;7.67;0.80;;;;;;;;;;5124391;28;20431;-77
2023/11/25 05:55:52;;;;;;;5.43;1.67;;;;;;;;;;5129489;28;20478;-77
2023/11/25 05:58:21;;;;;;;4.63;1.10;;;;;;;;;;5128936;28;20469;-78
2023/11/25 06:00:49;;;;;;;5.17;1.77;;;;;;;;;;5125814;28;20446;-78
2023/11/25 06:03:17;;;;;;;6.03;1.40;;;;;;;;;;5130524;28;20459;-78
2023/11/25 06:05:46;;;;;;;5.90;0.97;;;;;;;;;;5133030;28;20496;-78
2023/11/25 06:08:15;;;;;;;5.80;1.40;;;;;;;;;;5130085;28;20567;-78
2023/11/25 06:10:45;;;;;;;4.17;1.00;;;;;;;;;;5126696;28;20762;-78
2023/11/25 06:13:19;;;;;;;4.33;0.70;;;;;;;;;;5130065;28;21199;-77
2023/11/25 06:15:51;;;;;;;3.97;1.00;;;;;;;;;;5121553;28;20466;-78
2023/11/25 06:18:20;;;;;;;3.90;0.97;;;;;;;;;;5122899;28;20461;-78
2023/11/25 06:20:48;;;;;;;7.33;1.67;;;;;;;;;;5122007;28;20478;-79
2023/11/25 06:23:17;;;;;;;7.97;1.40;;;;;;;;;;5123097;28;20443;-79
2023/11/25 06:25:47;;;;;;;8.53;1.77;;;;;;;;;;5124900;28;20518;-77
2023/11/25 06:28:17;;;;;;;6.50;2.10;;;;;;;;;;5118248;28;20463;-79
2023/11/25 06:30:46;;;;;;;5.33;1.73;;;;;;;;;;5124280;28;20520;-78
2023/11/25 06:33:16;;;;;;;7.43;1.47;;;;;;;;;;5132128;28;20481;-78
2023/11/25 06:35:49;;;;;;;7.60;1.20;;;;;;;;;;5125322;28;20519;-79
2023/11/25 06:38:17;;;;;;;4.80;1.30;;;;;;;;;;5128795;28;20447;-79
2023/11/25 06:40:47;;;;;;;7.87;1.77;;;;;;;;;;5127721;28;20443;-79
2023/11/25 06:43:21;;;;;;;4.10;1.30;;;;;;;;;;5124148;28;20889;-77
2023/11/25 06:45:51;;;;;;;4.23;1.43;;;;;;;;;;5127663;28;20469;-78
2023/11/25 06:48:20;;;;;;;3.53;1.27;;;;;;;;;;5126219;28;20465;-78
2023/11/25 06:50:50;;;;;;;4.10;1.53;;;;;;;;;;5121940;28;20657;-78
2023/11/25 06:53:20;;;;;;;4.77;1.43;;;;;;;;;;5124684;28;20458;-78
2023/11/25 06:55:48;;;;;;;5.00;1.10;;;;;;;;;;5123701;28;20687;-78
2023/11/25 06:58:19;;;;;;;8.00;1.30;;;;;;;;;;5124466;28;20451;-77
2023/11/25 07:00:47;;;;;;;5.30;1.50;;;;;;;;;;5124558;28;20446;-77
2023/11/25 07:03:16;;;;;;;3.17;1.37;;;;;;;;;;5124199;28;20479;-78
2023/11/25 07:05:44;;;;;;;5.37;1.23;;;;;;;;;;5126716;28;20497;-78
2023/11/25 07:08:17;;;;;;;8.07;1.27;;;;;;;;;;5124040;28;20507;-78
2023/11/25 07:10:53;;;;;;;4.83;1.50;;;;;;;;;;5129380;28;20474;-78
2023/11/25 07:13:27;;;;;;;4.43;1.07;;;;;;;;;;5121415;28;20469;-77
2023/11/25 07:15:55;;;;;;;3.73;0.97;;;;;;;;;;5123013;28;20458;-76
2023/11/25 07:18:23;;;;;;;7.10;1.53;;;;;;;;;;5120161;28;20526;-78
2023/11/25 07:20:51;;;;;;;5.90;2.10;;;;;;;;;;5125548;28;20457;-78
2023/11/25 07:23:19;;;;;;;5.00;1.87;;;;;;;;;;5126622;28;20443;-77
2023/11/25 07:25:47;;;;;;;10.60;1.80;;;;;;;;;;5122126;28;20861;-77
2023/11/25 07:28:19;;;;;;;4.43;1.10;;;;;;;;;;5125759;28;20447;-78
2023/11/25 07:30:51;;;;;;;4.70;2.20;;;;;;;;;;5130417;28;20486;-78
2023/11/25 07:33:19;;;;;;;4.10;2.17;;;;;;;;;;5125977;28;20459;-75
2023/11/25 07:35:47;;;;;;;6.00;1.63;;;;;;;;;;5124051;28;20609;-77
2023/11/25 07:38:19;;;;;;;2.90;1.10;;;;;;;;;;5128102;28;20439;-77
2023/11/25 07:40:47;;;;;;;4.10;1.03;;;;;;;;;;5123734;28;20439;-77
2023/11/25 07:43:24;;;;;;;6.30;1.50;;;;;;;;;;5124654;28;20617;-78
2023/11/25 07:45:56;;;;;;;3.57;1.33;;;;;;;;;;5127891;28;20459;-78
2023/11/25 07:48:24;;;;;;;3.63;1.20;;;;;;;;;;5124091;28;20457;-78
2023/11/25 07:50:55;;;;;;;4.17;1.33;;;;;;;;;;5119933;28;20909;-77
2023/11/25 07:53:24;;;;;;;6.43;1.60;;;;;;;;;;5119672;28;20450;-79
2023/11/25 07:55:52;;;;;;;3.83;1.43;;;;;;;;;;5126941;28;20481;-79
2023/11/25 07:58:22;;;;;;;4.77;1.30;;;;;;;;;;5125538;28;20480;-78
2023/11/25 08:00:51;;;;;;;4.83;1.27;;;;;;;;;;5120804;28;20476;-77
2023/11/25 08:03:20;;;;;;;4.13;1.63;;;;;;;;;;5122461;28;20435;-77
2023/11/25 08:05:49;;;;;;;5.30;1.60;;;;;;;;;;5117334;28;20482;-78
2023/11/25 08:08:17;;;;;;;5.37;1.67;;;;;;;;;;5119900;28;20443;-78
2023/11/25 08:10:45;;;;;;;3.10;1.53;;;;;;;;;;5119913;28;20483;-77
2023/11/25 08:13:14;;;;;;;5.10;2.00;;;;;;;;;;5119578;28;20942;-78
2023/11/25 08:15:43;;;;;;;5.30;1.77;;;;;;;;;;5114571;28;20549;-77
2023/11/25 08:18:15;;;;;;;6.20;2.00;;;;;;;;;;5123358;28;20462;-77
2023/11/25 08:20:46;;;;;;;6.87;1.77;;;;;;;;;;5121308;28;20497;-77
2023/11/25 08:23:15;;;;;;;7.13;2.60;;;;;;;;;;5122329;28;20450;-77
2023/11/25 08:25:43;;;;;;;4.47;1.83;;;;;;;;;;5124871;28;20443;-78
2023/11/25 08:28:16;;;;;;;10.97;3.73;;;;;;;;;;5122504;28;20475;-78
2023/11/25 08:30:44;;;;;;;9.37;2.90;;;;;;;;;;5120734;28;20490;-77
2023/11/25 08:33:14;;;;;;;8.20;2.80;;;;;;;;;;5118720;28;20804;-77
2023/11/25 08:35:42;;;;;;;12.73;3.00;;;;;;;;;;5114983;28;21032;-77
2023/11/25 08:38:14;;;;;;;10.30;2.80;;;;;;;;;;5117774;28;20454;-78
2023/11/25 08:40:43;;;;;;;5.90;2.40;;;;;;;;;;5123558;28;20443;-78
2023/11/25 08:43:13;;;;;;;13.43;5.00;;;;;;;;;;5119585;28;20465;-78
2023/11/25 08:45:44;;;;;;;9.10;3.63;;;;;;;;;;5123218;28;20454;-78
2023/11/25 08:48:14;;;;;;;6.77;2.43;;;;;;;;;;5125100;28;20480;-78
2023/11/25 08:50:45;;;;;;;9.20;3.30;;;;;;;;;;5087176;28;20435;-78
2023/11/25 08:53:16;;;;;;;8.90;3.07;;;;;;;;;;5041853;28;20474;-78
2023/11/25 08:55:44;;;;;;;4.03;1.50;;;;;;;;;;5044581;28;20446;-78
2023/11/25 08:58:15;;;;;;;6.67;1.63;;;;;;;;;;5065706;28;20465;-78
2023/11/25 09:00:44;;;;;;;3.63;1.60;;;;;;;;;;5063987;28;20465;-77
2023/11/25 09:03:14;;;;;;;7.77;1.70;;;;;;;;;;5063864;28;20446;-77
2023/11/25 09:05:43;;;;;;;6.03;1.70;;;;;;;;;;5065198;28;20584;-77
2023/11/25 09:08:11;;;;;;;8.73;2.33;;;;;;;;;;5063565;28;20446;-77
2023/11/25 09:10:43;;;;;;;5.30;2.03;;;;;;;;;;5059480;28;20502;-78
2023/11/25 09:13:12;;;;;;;6.80;1.77;;;;;;;;;;5061648;28;20449;-79
2023/11/25 09:15:41;;;;;;;6.10;1.80;;;;;;;;;;5059526;28;20511;-77
2023/11/25 09:18:15;;;;;;;5.60;1.70;;;;;;;;;;5063025;28;20446;-78
2023/11/25 09:20:50;;;;;;;10.73;1.80;;;;;;;;;;5060663;28;20461;-78
2023/11/25 09:23:18;;;;;;;4.20;1.60;;;;;;;;;;5054095;28;20447;-79
2023/11/25 09:25:49;;;;;;;4.77;1.83;;;;;;;;;;5079778;28;20452;-79
2023/11/25 09:28:19;;;;;;;11.20;3.00;;;;;;;;;;5064676;28;20844;-78
2023/11/25 09:30:49;;;;;;;6.90;2.90;;;;;;;;;;5061470;28;20485;-77
2023/11/25 09:33:25;;;;;;;5.60;2.20;;;;;;;;;;5066518;28;20737;-77
2023/11/25 09:35:54;;;;;;;3.30;1.30;;;;;;;;;;5060285;28;20454;-76
2023/11/25 09:38:22;;;;;;;4.67;1.53;;;;;;;;;;5068703;28;20472;-76
2023/11/25 09:40:53;;;;;;;3.80;1.67;;;;;;;;;;5067514;28;20437;-77
2023/11/25 09:43:24;;;;;;;7.80;1.70;;;;;;;;;;5045038;28;20457;-77
2023/11/25 09:45:54;;;;;;;6.73;1.70;;;;;;;;;;5048867;28;20458;-78
2023/11/25 09:48:23;;;;;;;10.43;2.90;;;;;;;;;;5049023;28;20818;-78
2023/11/25 09:50:53;;;;;;;10.20;2.00;;;;;;;;;;5082651;28;20491;-76
2023/11/25 09:53:24;;;;;;;5.23;1.30;;;;;;;;;;5069103;28;20481;-79
2023/11/25 09:55:59;;;;;;;8.33;1.47;;;;;;;;;;5066549;28;20505;-77
2023/11/25 09:58:29;;;;;;;2.60;0.90;;;;;;;;;;5063718;28;20465;-77
2023/11/25 10:00:58;;;;;;;3.67;1.20;;;;;;;;;;5066489;28;20555;-77
2023/11/25 10:03:27;;;;;;;4.70;1.50;;;;;;;;;;5064845;28;20465;-79
2023/11/25 10:05:56;;;;;;;3.47;1.40;;;;;;;;;;5065752;28;20485;-76
2023/11/25 10:08:24;;;;;;;4.90;1.57;;;;;;;;;;5064348;28;20429;-78
2023/11/25 10:11:05;;;;;;;6.87;2.20;;;;;;;;;;5062999;28;21269;-78
2023/11/25 10:13:35;;;;;;;6.33;2.30;;;;;;;;;;5066165;28;20515;-78
2023/11/25 10:16:05;;;;;;;4.00;1.73;;;;;;;;;;5069372;28;20467;-78
2023/11/25 10:18:34;;;;;;;5.53;2.13;;;;;;;;;;5066791;28;20445;-78
2023/11/25 10:21:05;;;;;;;6.47;2.70;;;;;;;;;;5065455;28;20449;-78
2023/11/25 10:23:34;;;;;;;6.13;1.70;;;;;;;;;;5064020;28;20449;-77
2023/11/25 10:26:04;;;;;;;5.53;1.63;;;;;;;;;;5061202;28;20445;-78
2023/11/25 10:28:34;;;;;;;7.80;3.20;;;;;;;;;;5061338;28;20560;-77
2023/11/25 10:31:04;;;;;;;12.43;2.47;;;;;;;;;;5063670;28;20507;-77
2023/11/25 10:33:33;;;;;;;7.20;3.03;;;;;;;;;;5082601;28;20828;-79
2023/11/25 10:36:02;;;;;;;10.67;2.50;;;;;;;;;;5086051;28;20536;-79
2023/11/25 10:38:31;;;;;;;9.90;3.37;;;;;;;;;;5087674;28;20457;-78
2023/11/25 10:41:08;;;;;;;3.57;2.20;;;;;;;;;;5063001;28;20488;-78
2023/11/25 10:43:38;;;;;;;4.87;3.50;;;;;;;;;;5062407;28;20818;-78
2023/11/25 10:46:08;;;;;;;6.83;3.27;;;;;;;;;;5058495;28;20610;-78
2023/11/25 10:48:38;;;;;;;7.83;3.97;;;;;;;;;;5056004;28;20797;-78
2023/11/25 10:51:06;;;;;;;11.43;4.20;;;;;;;;;;5063607;28;20656;-78
2023/11/25 10:53:34;;;;;;;6.50;2.90;;;;;;;;;;5061149;28;20461;-77
2023/11/25 10:56:05;;;;;;;8.50;3.87;;;;;;;;;;5067553;28;20455;-78
2023/11/25 10:58:36;;;;;;;5.40;3.33;;;;;;;;;;5065913;28;20768;-77
2023/11/25 11:01:06;;;;;;;7.23;3.83;;;;;;;;;;5057404;28;20445;-77
2023/11/25 11:03:41;;;;;;;5.87;3.70;;;;;;;;;;5061140;28;20464;-77
2023/11/25 11:06:12;;;;;;;7.17;3.77;;;;;;;;;;5041896;28;21181;-77
2023/11/25 11:08:43;;;;;;;8.90;4.03;;;;;;;;;;5037198;28;20450;-77
2023/11/25 11:11:15;;;;;;;6.00;3.17;;;;;;;;;;5041083;28;20565;-78
2023/11/25 11:13:49;;;;;;;7.23;3.17;;;;;;;;;;5041947;28;20459;-77
2023/11/25 11:16:29;;;;;;;10.60;2.60;;;;;;;;;;5043209;28;20455;-78
2023/11/25 11:18:58;;;;;;;3.40;1.63;;;;;;;;;;5040869;28;20469;-78
2023/11/25 11:21:31;;;;;;;7.80;3.73;;;;;;;;;;5047086;28;20447;-78
2023/11/25 11:24:01;;;;;;;6.70;3.43;;;;;;;;;;5053600;28;20458;-77
2023/11/25 11:26:33;;;;;;;4.03;1.37;;;;;;;;;;5038312;28;20463;-79
2023/11/25 11:29:06;;;;;;;4.60;1.90;;;;;;;;;;5038700;28;20594;-77
2023/11/25 11:32:06;;;;;;;5.80;1.63;;;;;;;;;;5056465;28;20485;-78
2023/11/25 11:34:37;;;;;;;11.57;1.63;;;;;;;;;;4976515;28;20585;-78
2023/11/25 11:37:07;;;;;;;3.57;1.50;;;;;;;;;;5032768;28;20464;-77
2023/11/25 11:39:59;;;;;;;9.70;1.60;;;;;;;;;;5056634;28;20446;-76
2023/11/25 11:42:27;;;;;;;5.30;1.50;;;;;;;;;;5058218;28;20753;-77
2023/11/25 11:45:11;;;;;;;8.30;2.57;;;;;;;;;;5053186;28;20446;-78
2023/11/25 11:47:41;;;;;;;4.00;1.20;;;;;;;;;;5044991;28;21215;-79
2023/11/25 11:50:12;;;;;;;7.00;1.40;;;;;;;;;;5048854;28;20452;-76
2023/11/25 11:52:47;;;;;;;4.37;1.13;;;;;;;;;;5050628;28;20494;-77
2023/11/25 11:55:35;;;;;;;6.50;2.47;;;;;;;;;;5037078;28;20528;-77
2023/11/25 11:58:08;;;;;;;6.27;1.60;;;;;;;;;;5019451;28;20446;-76
2023/11/25 12:00:51;;;;;;;7.13;1.30;;;;;;;;;;5044754;28;20750;-76
2023/11/25 12:03:19;;;;;;;3.13;1.00;;;;;;;;;;5036724;28;20876;-78
2023/11/25 12:05:51;;;;;;;4.80;1.50;;;;;;;;;;5052383;28;20477;-78
2023/11/25 12:08:19;;;;;;;7.10;1.23;;;;;;;;;;5062281;28;20841;-76
2023/11/25 12:10:47;;;;;;;3.50;1.43;;;;;;;;;;5062695;28;20477;-78
2023/11/25 12:13:26;;;;;;;9.73;2.00;;;;;;;;;;5082037;28;20494;-78
2023/11/25 12:15:59;;;;;;;3.80;1.77;;;;;;;;;;5076607;28;20452;-77
2023/11/25 12:18:27;;;;;;;6.90;1.83;;;;;;;;;;5051720;28;20449;-78
2023/11/25 12:20:57;;;;;;;3.97;0.90;;;;;;;;;;5082900;28;20436;-78
2023/11/25 12:23:26;;;;;;;3.90;1.23;;;;;;;;;;5068767;28;20972;-77
2023/11/25 12:25:54;;;;;;;3.93;1.33;;;;;;;;;;5071501;28;20456;-76
2023/11/25 12:28:23;;;;;;;2.90;1.37;;;;;;;;;;5072513;28;20453;-78
2023/11/25 12:30:56;;;;;;;5.37;1.90;;;;;;;;;;5064704;28;20480;-77
2023/11/25 12:33:25;;;;;;;3.87;1.50;;;;;;;;;;5063675;28;20444;-77
2023/11/25 12:35:58;;;;;;;7.30;1.57;;;;;;;;;;5058787;28;20479;-77
2023/11/25 12:38:31;;;;;;;3.70;1.27;;;;;;;;;;5061554;28;20861;-78
2023/11/25 12:41:01;;;;;;;4.53;1.57;;;;;;;;;;5054413;28;20478;-77
2023/11/25 12:43:30;;;;;;;6.33;1.70;;;;;;;;;;5064709;28;21140;-78
2023/11/25 12:46:15;;;;;;;6.30;1.90;;;;;;;;;;5069807;28;20453;-79
2023/11/25 12:48:52;;;;;;;4.47;2.27;;;;;;;;;;5067052;28;20488;-78
2023/11/25 12:51:21;;;;;;;3.53;1.60;;;;;;;;;;5061497;28;20496;-78
2023/11/25 12:53:57;;;;;;;5.07;1.73;;;;;;;;;;5053308;28;20458;-79
2023/11/25 12:56:30;;;;;;;6.50;2.20;;;;;;;;;;5066197;28;20492;-79
2023/11/25 12:58:59;;;;;;;3.37;1.67;;;;;;;;;;5064296;28;20472;-77
2023/11/25 13:01:28;;;;;;;6.20;1.80;;;;;;;;;;5056267;28;20458;-78
2023/11/25 13:04:03;;;;;;;12.63;5.80;;;;;;;;;;5062626;28;20462;-78
2023/11/25 13:06:45;;;;;;;11.07;2.90;;;;;;;;;;5033053;28;20578;-78
2023/11/25 13:09:14;;;;;;;3.87;1.80;;;;;;;;;;5033078;28;20514;-77
2023/11/25 13:11:43;;;;;;;2.70;1.30;;;;;;;;;;5040844;28;20474;-78
2023/11/25 13:14:17;;;;;;;4.30;1.57;;;;;;;;;;5035965;28;20493;-76
2023/11/25 13:16:45;;;;;;;4.50;1.30;;;;;;;;;;5011660;28;20573;-77
2023/11/25 13:19:15;;;;;;;10.40;2.70;;;;;;;;;;5040188;28;20466;-77
2023/11/25 13:21:47;;;;;;;4.70;1.40;;;;;;;;;;5044028;28;20506;-77
2023/11/25 13:24:22;;;;;;;6.20;1.37;;;;;;;;;;5037809;28;20454;-77
2023/11/25 13:26:52;;;;;;;7.93;2.20;;;;;;;;;;5039435;28;20452;-78
2023/11/25 13:29:30;;;;;;;5.10;1.60;;;;;;;;;;5065529;28;20461;-77
2023/11/25 13:31:58;;;;;;;5.37;1.80;;;;;;;;;;5059915;28;20579;-77
2023/11/25 13:34:26;;;;;;;3.30;0.83;;;;;;;;;;5059820;28;20446;-77
2023/11/25 13:37:02;;;;;;;3.70;1.37;;;;;;;;;;5061073;28;20525;-78
2023/11/25 13:39:31;;;;;;;5.90;1.50;;;;;;;;;;5065689;28;20467;-77
2023/11/25 13:50:00;;;;;;;4.43;1.40;;;;;;;;;;5065471;28;20461;-77
2023/11/25 13:52:37;;;;;;;4.60;1.63;;;;;;;;;;5060911;28;20222;-78
2023/11/25 13:55:06;;;;;;;8.37;1.83;;;;;;;;;;5073087;28;20453;-78
2023/11/25 13:57:36;;;;;;;5.70;2.00;;;;;;;;;;5073808;28;21099;-79
2023/11/25 14:00:08;;;;;;;9.83;2.30;;;;;;;;;;5056811;28;20488;-78
2023/11/25 14:02:36;;;;;;;3.00;2.10;;;;;;;;;;5066346;28;20449;-77
2023/11/25 14:05:05;;;;;;;7.87;2.13;;;;;;;;;;5065787;28;20458;-77
2023/11/25 14:07:34;;;;;;;3.20;1.50;;;;;;;;;;5057927;28;20445;-78
2023/11/25 14:10:09;;;;;;;7.80;1.77;;;;;;;;;;5059706;28;21088;-77
2023/11/25 14:12:38;;;;;;;4.43;1.90;;;;;;;;;;5053602;28;20492;-76
2023/11/25 14:15:08;;;;;;;5.03;1.73;;;;;;;;;;5066014;28;20437;-79
2023/11/25 14:17:42;;;;;;;4.27;2.00;;;;;;;;;;5057063;28;20464;-78
2023/11/25 14:20:21;;;;;;;9.13;2.00;;;;;;;;;;5048155;28;20461;-77
2023/11/25 14:22:50;;;;;;;6.20;1.93;;;;;;;;;;5049553;28;20552;-77
2023/11/25 14:25:19;;;;;;;4.60;1.70;;;;;;;;;;5052708;28;20607;-77
2023/11/25 14:31:11;;;;;;;3.87;1.70;;;;;;;;;;5058893;28;20490;-76
2023/11/25 14:33:40;;;;;;;4.70;1.57;;;;;;;;;;5066894;28;20449;-78
2023/11/25 14:36:17;;;;;;;4.80;1.27;;;;;;;;;;5056740;28;20570;-77
2023/11/25 14:39:06;;;;;;;2.40;1.03;;;;;;;;;;5059687;28;20467;-77
2023/11/25 14:41:36;;;;;;;2.40;0.90;;;;;;;;;;5071895;28;20485;-77
2023/11/25 14:44:09;;;;;;;3.67;1.10;;;;;;;;;;5079532;28;20436;-78
2023/11/25 14:46:42;;;;;;;2.30;1.00;;;;;;;;;;5067859;28;20457;-77
2023/11/25 14:49:14;;;;;;;2.63;1.00;;;;;;;;;;5071531;28;20465;-77
2023/11/25 14:51:42;;;;;;;2.60;1.07;;;;;;;;;;5054173;28;20478;-78
2023/11/25 14:54:12;;;;;;;2.80;0.97;;;;;;;;;;5052304;28;20452;-77
2023/11/25 14:56:43;;;;;;;1.73;0.70;;;;;;;;;;5049296;28;20462;-78
2023/11/25 14:59:12;;;;;;;2.57;0.97;;;;;;;;;;5041149;28;20766;-78
2023/11/25 15:01:40;;;;;;;1.77;0.90;;;;;;;;;;5041612;28;20554;-78
2023/11/25 15:04:08;;;;;;;3.40;0.90;;;;;;;;;;5041265;28;20450;-78
2023/11/25 15:06:51;;;;;;;3.13;0.77;;;;;;;;;;5042143;28;20449;-77
2023/11/25 15:09:19;;;;;;;2.63;0.90;;;;;;;;;;5041335;28;20462;-78
2023/11/25 15:11:58;;;;;;;4.10;1.27;;;;;;;;;;5043546;28;20489;-78
2023/11/25 15:14:34;;;;;;;1.77;0.70;;;;;;;;;;5041894;28;20910;-77